createdAt,value
2019-02-23T00:01:19.835Z,35.93
2019-02-23T00:03:50.743Z,29.27
2019-02-23T00:06:29.687Z,36.27
2019-02-23T00:08:55.726Z,45.57
2019-02-23T00:11:29.981Z,35.73
2019-02-23T00:14:01.619Z,37.20
2019-02-23T00:16:31.019Z,33.57
2019-02-23T00:19:03.307Z,34.07
2019-02-23T00:21:32.704Z,37.00
2019-02-23T00:24:02.333Z,40.53
2019-02-23T00:26:31.884Z,42.97
2019-02-23T00:29:02.483Z,31.87
2019-02-23T00:31:32.274Z,38.17
2019-02-23T00:34:01.691Z,39.73
2019-02-23T00:36:31.508Z,37.07
2019-02-23T00:39:02.611Z,33.13
2019-02-23T00:41:36.514Z,37.50
2019-02-23T00:44:06.253Z,35.97
2019-02-23T00:46:37.623Z,36.77
2019-02-23T00:49:07.076Z,43.90
2019-02-23T00:51:36.848Z,33.20
2019-02-23T00:54:06.452Z,32.30
2019-02-23T00:56:36.819Z,48.90
2019-02-23T00:59:07.634Z,36.07
2019-02-23T01:01:38.842Z,35.33
2019-02-23T01:04:11.399Z,31.10
2019-02-23T01:06:40.643Z,30.30
2019-02-23T01:09:10.137Z,50.30
2019-02-23T01:11:39.522Z,36.73
2019-02-23T01:14:08.890Z,31.70
2019-02-23T01:16:40.590Z,33.47
2019-02-23T01:19:13.219Z,31.33
2019-02-23T01:21:43.209Z,33.10
2019-02-23T01:24:12.620Z,36.60
2019-02-23T01:26:45.342Z,34.03
2019-02-23T01:29:15.165Z,32.60
2019-02-23T01:31:45.119Z,35.70
2019-02-23T01:34:14.961Z,40.03
2019-02-23T01:36:44.346Z,40.00
2019-02-23T01:39:13.678Z,36.33
2019-02-23T01:41:43.154Z,32.23
2019-02-23T01:44:12.516Z,32.97
2019-02-23T01:46:41.870Z,34.53
2019-02-23T01:49:11.297Z,38.30
2019-02-23T01:51:41.001Z,38.63
2019-02-23T01:54:10.378Z,30.23
2019-02-23T01:56:40.029Z,44.33
2019-02-23T01:59:09.471Z,32.40
2019-02-23T02:01:38.895Z,41.03
2019-02-23T02:04:08.308Z,36.17
2019-02-23T02:06:37.711Z,34.40
2019-02-23T02:09:07.234Z,41.57
2019-02-23T02:11:36.639Z,33.03
2019-02-23T02:14:06.121Z,39.07
2019-02-23T02:16:35.455Z,35.70
2019-02-23T02:19:04.872Z,35.63
2019-02-23T02:21:34.228Z,38.93
2019-02-23T02:24:03.568Z,36.20
2019-02-23T02:26:32.971Z,31.47
2019-02-23T02:29:02.350Z,26.00
2019-02-23T02:31:31.766Z,28.60
2019-02-23T02:34:09.017Z,31.90
2019-02-23T02:36:38.369Z,29.03
2019-02-23T02:39:10.632Z,33.70
2019-02-23T02:41:39.900Z,34.47
2019-02-23T02:44:09.269Z,41.23
2019-02-23T02:46:38.699Z,37.53
2019-02-23T02:49:08.106Z,41.80
2019-02-23T02:51:37.662Z,31.50
2019-02-23T02:54:07.116Z,32.77
2019-02-23T02:56:36.549Z,38.73
2019-02-23T02:59:06.546Z,28.67
2019-02-23T03:01:35.939Z,34.43
2019-02-23T03:04:05.281Z,36.00
2019-02-23T03:06:34.741Z,44.23
2019-02-23T03:09:06.045Z,39.20
2019-02-23T03:11:35.442Z,37.37
2019-02-23T03:14:04.820Z,31.20
2019-02-23T03:16:34.221Z,34.97
2019-02-23T03:19:03.602Z,32.07
2019-02-23T03:21:32.967Z,32.23
2019-02-23T03:24:02.413Z,36.60
2019-02-23T03:26:31.769Z,36.50
2019-02-23T03:29:01.174Z,29.93
2019-02-23T03:31:30.627Z,33.53
2019-02-23T03:34:00.019Z,31.27
2019-02-23T03:36:29.470Z,33.20
2019-02-23T03:38:58.777Z,28.50
2019-02-23T03:41:28.758Z,32.40
2019-02-23T03:43:58.111Z,41.93
2019-02-23T03:46:27.500Z,36.77
2019-02-23T03:48:56.903Z,30.43
2019-02-23T03:51:26.344Z,30.90
2019-02-23T03:53:55.799Z,34.10
2019-02-23T03:56:25.242Z,30.57
2019-02-23T03:58:54.687Z,29.47
2019-02-23T04:01:24.101Z,28.43
2019-02-23T04:03:53.502Z,28.20
2019-02-23T04:06:22.959Z,29.33
2019-02-23T04:08:52.305Z,32.07
2019-02-23T04:11:22.143Z,31.63
2019-02-23T04:13:51.796Z,32.93
2019-02-23T04:16:21.201Z,27.17
2019-02-23T04:18:50.556Z,29.63
2019-02-23T04:21:19.988Z,31.20
2019-02-23T04:23:49.398Z,35.40
2019-02-23T04:26:18.807Z,30.53
2019-02-23T04:28:48.211Z,36.33
2019-02-23T04:31:17.533Z,28.70
2019-02-23T04:33:46.875Z,26.80
2019-02-23T04:36:16.233Z,33.33
2019-02-23T04:38:45.990Z,28.87
2019-02-23T04:41:15.355Z,29.33
2019-02-23T04:43:44.862Z,30.43
2019-02-23T04:46:14.241Z,29.83
2019-02-23T04:48:43.622Z,31.10
2019-02-23T04:51:14.611Z,22.90
2019-02-23T04:53:44.319Z,24.27
2019-02-23T04:56:13.678Z,28.73
2019-02-23T04:58:43.112Z,28.30
2019-02-23T05:01:12.462Z,27.80
2019-02-23T05:03:41.830Z,32.67
2019-02-23T05:06:11.208Z,34.50
2019-02-23T05:08:40.582Z,31.13
2019-02-23T05:11:10.019Z,27.87
2019-02-23T05:13:39.374Z,39.03
2019-02-23T05:16:08.777Z,23.97
2019-02-23T05:18:38.122Z,31.27
2019-02-23T05:21:07.596Z,35.23
2019-02-23T05:23:37.060Z,34.23
2019-02-23T05:26:06.422Z,32.13
2019-02-23T05:28:35.722Z,30.07
2019-02-23T05:31:05.234Z,28.70
2019-02-23T05:33:34.691Z,35.47
2019-02-23T05:36:04.045Z,23.03
2019-02-23T05:38:33.437Z,23.70
2019-02-23T05:41:02.820Z,27.70
2019-02-23T05:43:33.363Z,26.53
2019-02-23T05:46:02.737Z,25.27
2019-02-23T05:48:32.202Z,22.33
2019-02-23T05:51:01.626Z,31.20
2019-02-23T05:53:31.090Z,27.80
2019-02-23T05:56:00.603Z,26.10
2019-02-23T05:58:30.238Z,26.67
2019-02-23T06:00:59.696Z,29.10
2019-02-23T06:03:29.239Z,36.33
2019-02-23T06:05:58.671Z,25.83
2019-02-23T06:08:28.085Z,33.00
2019-02-23T06:10:57.459Z,26.23
2019-02-23T06:13:27.955Z,34.60
2019-02-23T06:15:57.622Z,33.07
2019-02-23T06:18:27.036Z,30.27
2019-02-23T06:20:56.488Z,30.43
2019-02-23T06:23:26.091Z,38.53
2019-02-23T06:25:55.581Z,37.10
2019-02-23T06:28:25.462Z,35.43
2019-02-23T06:30:54.759Z,29.63
2019-02-23T06:33:24.232Z,30.20
2019-02-23T06:35:53.610Z,39.40
2019-02-23T06:38:23.024Z,30.27
2019-02-23T06:40:52.513Z,31.87
2019-02-23T06:43:22.063Z,27.80
2019-02-23T06:45:51.653Z,33.67
2019-02-23T06:48:21.055Z,32.57
2019-02-23T06:50:50.454Z,29.33
2019-02-23T06:53:19.833Z,26.93
2019-02-23T06:55:49.185Z,32.97
2019-02-23T06:58:18.666Z,24.73
2019-02-23T07:00:48.042Z,28.60
2019-02-23T07:03:17.450Z,22.50
2019-02-23T07:05:46.779Z,29.37
2019-02-23T07:08:16.175Z,28.47
2019-02-23T07:10:45.487Z,25.63
2019-02-23T07:13:15.407Z,32.70
2019-02-23T07:15:45.062Z,27.70
2019-02-23T07:18:14.587Z,25.90
2019-02-23T07:20:44.702Z,27.40
2019-02-23T07:23:14.494Z,27.47
2019-02-23T07:25:43.888Z,36.87
2019-02-23T07:28:13.241Z,33.83
2019-02-23T07:30:42.625Z,35.37
2019-02-23T07:33:12.007Z,42.20
2019-02-23T07:35:41.460Z,31.37
2019-02-23T07:38:10.859Z,41.37
2019-02-23T07:40:40.320Z,41.13
2019-02-23T07:43:09.768Z,50.70
2019-02-23T07:45:39.263Z,44.93
2019-02-23T07:48:08.656Z,39.63
2019-02-23T07:50:38.308Z,34.90
2019-02-23T07:53:07.749Z,42.90
2019-02-23T07:55:37.213Z,51.10
2019-02-23T07:58:06.559Z,40.57
2019-02-23T08:00:36.095Z,40.27
2019-02-23T08:03:05.710Z,41.10
2019-02-23T08:05:35.126Z,37.50
2019-02-23T08:08:04.537Z,43.37
2019-02-23T08:10:34.361Z,36.60
2019-02-23T08:13:04.551Z,43.00
2019-02-23T08:15:34.037Z,40.47
2019-02-23T08:18:03.483Z,45.37
2019-02-23T08:20:33.324Z,37.10
2019-02-23T08:23:02.767Z,35.30
2019-02-23T08:25:32.215Z,41.43
2019-02-23T08:28:01.685Z,41.23
2019-02-23T08:30:31.160Z,41.83
2019-02-23T08:33:00.769Z,43.07
2019-02-23T08:35:30.376Z,43.63
2019-02-23T08:38:00.092Z,46.00
2019-02-23T08:40:29.513Z,38.90
2019-02-23T08:43:00.647Z,52.87
2019-02-23T08:45:31.309Z,31.13
2019-02-23T08:48:00.736Z,39.10
2019-02-23T08:50:30.834Z,33.53
2019-02-23T08:53:00.551Z,35.73
2019-02-23T08:55:29.996Z,36.13
2019-02-23T08:57:59.533Z,36.17
2019-02-23T09:00:29.643Z,38.00
2019-02-23T09:03:02.151Z,34.13
2019-02-23T09:05:32.208Z,32.10
2019-02-23T09:08:03.406Z,30.87
2019-02-23T09:10:34.289Z,33.80
2019-02-23T09:13:03.747Z,41.93
2019-02-23T09:15:33.266Z,37.73
2019-02-23T09:18:02.948Z,32.83
2019-02-23T09:20:32.387Z,37.40
2019-02-23T09:23:02.227Z,33.20
2019-02-23T09:25:32.168Z,31.63
2019-02-23T09:28:02.546Z,35.60
2019-02-23T09:30:32.032Z,32.70
2019-02-23T09:33:02.765Z,29.13
2019-02-23T09:35:32.364Z,29.20
2019-02-23T09:38:03.125Z,31.50
2019-02-23T09:40:32.563Z,30.83
2019-02-23T09:43:02.603Z,30.50
2019-02-23T09:45:32.166Z,27.83
2019-02-23T09:48:03.732Z,31.33
2019-02-23T09:50:33.311Z,31.37
2019-02-23T09:53:10.763Z,31.07
2019-02-23T09:55:36.052Z,37.20
2019-02-23T09:58:05.919Z,26.27
2019-02-23T10:00:35.293Z,25.93
2019-02-23T10:03:05.022Z,25.40
2019-02-23T10:05:34.458Z,30.60
2019-02-23T10:08:04.459Z,24.13
2019-02-23T10:10:33.903Z,21.93
2019-02-23T10:13:03.723Z,26.53
2019-02-23T10:15:33.164Z,22.50
2019-02-23T10:18:03.126Z,17.43
2019-02-23T10:20:32.591Z,19.33
2019-02-23T10:23:02.959Z,17.30
2019-02-23T10:25:32.458Z,23.77
2019-02-23T10:28:03.229Z,22.90
2019-02-23T10:30:32.726Z,27.30
2019-02-23T10:33:02.409Z,21.73
2019-02-23T10:35:32.119Z,26.13
2019-02-23T10:38:01.578Z,20.83
2019-02-23T10:40:31.602Z,28.17
2019-02-23T10:43:01.053Z,24.80
2019-02-23T10:45:30.478Z,25.23
2019-02-23T10:47:59.972Z,26.40
2019-02-23T10:50:29.451Z,21.60
2019-02-23T10:52:58.875Z,26.90
2019-02-23T10:55:28.359Z,28.07
2019-02-23T10:57:57.868Z,31.30
2019-02-23T11:00:27.375Z,26.00
2019-02-23T11:02:56.827Z,29.67
2019-02-23T11:05:26.521Z,22.00
2019-02-23T11:07:56.088Z,25.97
2019-02-23T11:10:25.772Z,26.93
2019-02-23T11:12:55.622Z,20.83
2019-02-23T11:15:25.704Z,27.53
2019-02-23T11:17:55.258Z,23.90
2019-02-23T11:20:25.044Z,19.00
2019-02-23T11:22:55.729Z,15.07
2019-02-23T11:25:25.136Z,21.03
2019-02-23T11:27:54.925Z,21.43
2019-02-23T11:30:24.325Z,10.40
2019-02-23T11:32:53.751Z,12.80
2019-02-23T11:35:23.163Z,14.40
2019-02-23T11:37:52.598Z,8.40
2019-02-23T11:40:23.556Z,17.90
2019-02-23T11:42:53.306Z,9.57
2019-02-23T11:45:24.169Z,11.67
2019-02-23T11:47:53.645Z,16.30
2019-02-23T11:50:23.046Z,18.20
2019-02-23T11:52:52.544Z,11.50
2019-02-23T11:55:22.021Z,10.13
2019-02-23T11:57:51.587Z,18.50
2019-02-23T12:00:21.850Z,9.37
2019-02-23T12:02:52.791Z,10.30
2019-02-23T12:05:22.466Z,8.10
2019-02-23T12:07:54.144Z,15.03
2019-02-23T12:10:23.791Z,13.33
2019-02-23T12:12:53.321Z,16.33
2019-02-23T12:15:22.747Z,14.87
2019-02-23T12:17:52.312Z,8.63
2019-02-23T12:20:21.860Z,11.93
2019-02-23T12:22:51.431Z,9.67
2019-02-23T12:25:20.988Z,11.63
2019-02-23T12:27:50.463Z,12.00
2019-02-23T12:30:19.886Z,12.50
2019-02-23T12:32:49.336Z,6.93
2019-02-23T12:35:18.851Z,7.53
2019-02-23T12:37:48.292Z,30.73
2019-02-23T12:40:17.744Z,12.23
2019-02-23T12:42:47.261Z,8.07
2019-02-23T12:45:16.761Z,12.83
2019-02-23T12:47:46.248Z,9.73
2019-02-23T12:50:15.747Z,9.97
2019-02-23T12:52:45.173Z,8.13
2019-02-23T12:55:14.799Z,6.93
2019-02-23T12:57:44.473Z,7.17
2019-02-23T13:00:14.166Z,7.97
2019-02-23T13:02:43.722Z,12.53
2019-02-23T13:05:13.878Z,9.03
2019-02-23T13:07:43.316Z,6.30
2019-02-23T13:10:13.481Z,9.13
2019-02-23T13:12:55.732Z,8.57
2019-02-23T13:15:54.880Z,9.07
2019-02-23T13:18:52.482Z,13.33
2019-02-23T13:22:02.769Z,10.63
2019-02-23T13:24:57.228Z,9.67
2019-02-23T13:28:06.182Z,10.10
2019-02-23T13:30:55.731Z,9.10
2019-02-23T13:34:09.371Z,10.77
2019-02-23T13:37:16.643Z,8.87
2019-02-23T13:40:30.441Z,10.43
2019-02-23T13:43:54.616Z,8.47
2019-02-23T13:46:52.947Z,10.30
2019-02-23T13:49:43.204Z,11.67
2019-02-23T13:53:01.622Z,8.27
2019-02-23T13:56:03.664Z,9.67
2019-02-23T13:58:47.745Z,15.80
2019-02-23T14:01:58.970Z,8.80
2019-02-23T14:05:21.577Z,12.63
2019-02-23T14:08:15.066Z,9.23
2019-02-23T14:11:08.539Z,14.47
2019-02-23T14:14:18.976Z,10.30
2019-02-23T14:17:05.598Z,10.40
2019-02-23T14:20:16.762Z,12.70
2019-02-23T14:23:06.187Z,10.30
2019-02-23T14:26:17.697Z,12.50
2019-02-23T14:29:37.216Z,18.53
2019-02-23T14:32:49.177Z,13.97
2019-02-23T14:36:04.175Z,16.37
2019-02-23T14:39:09.305Z,12.90
2019-02-23T14:42:06.844Z,12.90
2019-02-23T14:45:07.775Z,14.33
2019-02-23T14:48:20.123Z,13.17
2019-02-23T14:51:25.842Z,13.97
2019-02-23T14:54:32.123Z,14.00
2019-02-23T14:57:25.832Z,12.63
2019-02-23T15:00:04.342Z,12.20
2019-02-23T15:03:01.039Z,10.43
2019-02-23T15:06:11.814Z,8.03
2019-02-23T15:08:48.344Z,11.80
2019-02-23T15:11:55.669Z,12.77
2019-02-23T15:15:16.816Z,11.80
2019-02-23T15:18:24.431Z,14.63
2019-02-23T15:21:22.365Z,14.00
2019-02-23T15:24:31.935Z,13.70
2019-02-23T15:27:39.772Z,12.97
2019-02-23T15:31:02.161Z,13.57
2019-02-23T15:33:57.927Z,12.50
2019-02-23T15:36:46.977Z,21.90
2019-02-23T15:39:59.444Z,28.60
2019-02-23T15:43:18.810Z,13.63
2019-02-23T15:46:08.864Z,16.07
2019-02-23T15:49:17.285Z,13.07
2019-02-23T15:51:46.858Z,12.40
2019-02-23T15:54:16.358Z,13.87
2019-02-23T15:56:45.926Z,12.03
2019-02-23T15:59:15.475Z,18.97
2019-02-23T16:01:44.978Z,16.43
2019-02-23T16:04:14.574Z,17.57
2019-02-23T16:06:44.156Z,14.13
2019-02-23T16:09:14.195Z,11.33
2019-02-23T16:11:45.253Z,15.10
2019-02-23T16:14:15.100Z,10.50
2019-02-23T16:16:47.260Z,10.47
2019-02-23T16:19:15.872Z,17.33
2019-02-23T16:21:45.755Z,14.40
2019-02-23T16:24:15.314Z,12.53
2019-02-23T16:26:44.928Z,14.73
2019-02-23T16:29:14.409Z,14.73
2019-02-23T16:31:43.940Z,11.40
2019-02-23T16:34:13.492Z,14.20
2019-02-23T16:36:42.947Z,9.93
2019-02-23T16:39:13.560Z,11.20
2019-02-23T16:41:43.153Z,14.77
2019-02-23T16:44:12.567Z,9.83
2019-02-23T16:46:42.197Z,14.23
2019-02-23T16:49:12.822Z,17.83
2019-02-23T16:51:42.344Z,12.47
2019-02-23T16:54:12.305Z,14.30
2019-02-23T16:56:41.832Z,19.63
2019-02-23T16:59:12.979Z,10.67
2019-02-23T17:01:42.778Z,18.83
2019-02-23T17:04:12.394Z,11.53
2019-02-23T17:06:42.999Z,19.00
2019-02-23T17:09:12.489Z,15.30
2019-02-23T17:11:42.280Z,14.47
2019-02-23T17:14:12.180Z,17.70
2019-02-23T17:16:41.659Z,21.43
2019-02-23T17:19:11.288Z,12.60
2019-02-23T17:21:40.847Z,11.77
2019-02-23T17:24:10.431Z,16.47
2019-02-23T17:26:39.867Z,14.77
2019-02-23T17:29:09.288Z,22.30
2019-02-23T17:31:38.863Z,11.30
2019-02-23T17:34:08.358Z,25.50
2019-02-23T17:36:38.076Z,22.40
2019-02-23T17:39:08.891Z,17.40
2019-02-23T17:41:38.446Z,21.23
2019-02-23T17:44:07.982Z,15.90
2019-02-23T17:46:38.621Z,14.90
2019-02-23T17:49:08.269Z,22.00
2019-02-23T17:51:38.196Z,19.00
2019-02-23T17:54:07.860Z,15.03
2019-02-23T17:56:37.502Z,19.87
2019-02-23T17:59:07.141Z,19.30
2019-02-23T18:01:36.956Z,15.90
2019-02-23T18:04:06.563Z,35.40
2019-02-23T18:06:38.300Z,17.03
2019-02-23T18:09:07.733Z,33.57
2019-02-23T18:11:37.309Z,15.23
2019-02-23T18:14:06.931Z,19.90
2019-02-23T18:16:38.623Z,17.50
2019-02-23T18:19:09.509Z,23.40
2019-02-23T18:21:41.489Z,14.93
2019-02-23T18:24:11.579Z,19.17
2019-02-23T18:26:41.074Z,20.60
2019-02-23T18:29:10.683Z,18.70
2019-02-23T18:31:40.172Z,18.23
2019-02-23T18:34:09.796Z,24.93
2019-02-23T18:36:45.821Z,15.80
2019-02-23T18:39:17.421Z,17.80
2019-02-23T18:41:46.935Z,20.43
2019-02-23T18:44:23.969Z,18.80
2019-02-23T18:46:55.007Z,29.20
2019-02-23T18:49:28.611Z,19.60
2019-02-23T18:51:59.485Z,18.60
2019-02-23T18:54:29.373Z,26.43
2019-02-23T18:56:59.732Z,23.30
2019-02-23T18:59:30.940Z,17.17
2019-02-23T19:02:00.493Z,21.10
2019-02-23T19:04:30.075Z,20.60
2019-02-23T19:07:04.616Z,22.37
2019-02-23T19:09:37.803Z,13.20
2019-02-23T19:12:11.257Z,22.50
2019-02-23T19:14:45.888Z,18.63
2019-02-23T19:17:16.965Z,22.70
2019-02-23T19:19:49.512Z,28.17
2019-02-23T19:22:27.908Z,39.13
2019-02-23T19:24:58.559Z,40.23
2019-02-23T19:27:30.214Z,23.97
2019-02-23T19:30:00.899Z,25.03
2019-02-23T19:32:35.683Z,34.43
2019-02-23T19:35:07.349Z,34.60
2019-02-23T19:37:38.771Z,38.83
2019-02-23T19:40:08.590Z,25.37
2019-02-23T19:42:41.939Z,22.60
2019-02-23T19:45:11.659Z,27.20
2019-02-23T19:47:42.927Z,23.20
2019-02-23T19:50:21.190Z,21.03
2019-02-23T19:52:51.141Z,25.03
2019-02-23T19:55:22.489Z,33.77
2019-02-23T19:57:57.652Z,27.17
2019-02-23T20:00:33.661Z,35.93
2019-02-23T20:03:05.043Z,24.70
2019-02-23T20:05:40.162Z,26.57
2019-02-23T20:08:14.377Z,25.17
2019-02-23T20:10:46.080Z,31.77
2019-02-23T20:13:18.105Z,34.67
2019-02-23T20:15:47.972Z,26.60
2019-02-23T20:18:19.444Z,31.03
2019-02-23T20:20:50.977Z,35.93
2019-02-23T20:23:22.658Z,25.23
2019-02-23T20:25:53.595Z,28.13
2019-02-23T20:28:23.337Z,23.07
2019-02-23T20:30:53.224Z,22.10
2019-02-23T20:33:24.932Z,32.10
2019-02-23T20:35:58.208Z,20.83
2019-02-23T20:38:35.482Z,27.87
2019-02-23T20:41:06.168Z,24.70
2019-02-23T20:43:38.068Z,24.83
2019-02-23T20:46:10.383Z,22.30
2019-02-23T20:48:41.690Z,29.77
2019-02-23T20:51:21.375Z,31.33
2019-02-23T20:53:50.978Z,25.50
2019-02-23T20:56:23.025Z,28.63
2019-02-23T20:58:53.460Z,24.70
2019-02-23T21:01:23.257Z,19.00
2019-02-23T21:03:52.990Z,32.80
2019-02-23T21:06:29.307Z,29.13
2019-02-23T21:09:01.149Z,22.70
2019-02-23T21:11:30.929Z,30.17
2019-02-23T21:14:01.737Z,22.73
2019-02-23T21:16:31.783Z,27.90
2019-02-23T21:19:07.309Z,29.40
2019-02-23T21:21:38.963Z,26.90
2019-02-23T21:24:10.497Z,32.10
2019-02-23T21:26:40.258Z,29.27
2019-02-23T21:29:09.803Z,31.83
2019-02-23T21:31:41.655Z,20.83
2019-02-23T21:34:13.486Z,23.77
2019-02-23T21:36:43.130Z,38.60
2019-02-23T21:39:12.669Z,34.97
2019-02-23T21:41:43.038Z,54.30
2019-02-23T21:44:16.356Z,28.20
2019-02-23T21:46:46.038Z,38.23
2019-02-23T21:49:15.611Z,28.90
2019-02-23T21:51:46.394Z,43.40
2019-02-23T21:54:15.805Z,29.33
2019-02-23T21:56:50.282Z,30.67
2019-02-23T21:59:22.948Z,30.00
2019-02-23T22:01:55.753Z,28.80
2019-02-23T22:04:25.324Z,28.00
2019-02-23T22:06:57.208Z,32.07
2019-02-23T22:09:31.405Z,54.90
2019-02-23T22:12:05.569Z,30.90
2019-02-23T22:14:36.662Z,30.80
2019-02-23T22:17:06.510Z,25.40
2019-02-23T22:19:36.584Z,29.60
2019-02-23T22:22:12.928Z,21.20
2019-02-23T22:24:43.913Z,18.40
2019-02-23T22:27:13.920Z,19.23
2019-02-23T22:29:44.540Z,16.53
2019-02-23T22:32:15.465Z,18.07
2019-02-23T22:34:55.333Z,19.00
2019-02-23T22:37:26.777Z,33.27
2019-02-23T22:40:00.683Z,27.27
2019-02-23T22:42:31.397Z,37.07
2019-02-23T22:45:02.319Z,23.20
2019-02-23T22:47:34.989Z,27.20
2019-02-23T22:50:09.355Z,22.37
2019-02-23T22:52:41.268Z,24.30
2019-02-23T22:55:11.299Z,17.93
2019-02-23T22:57:41.206Z,43.70
2019-02-23T23:00:17.713Z,26.10
2019-02-23T23:02:51.470Z,27.93
2019-02-23T23:05:21.001Z,34.67
2019-02-23T23:07:55.299Z,23.50
2019-02-23T23:10:23.916Z,25.90
2019-02-23T23:12:53.921Z,27.57
2019-02-23T23:15:27.326Z,21.63
2019-02-23T23:17:59.858Z,24.37
2019-02-23T23:20:30.455Z,24.13
2019-02-23T23:23:01.681Z,21.97
2019-02-23T23:25:33.710Z,23.50
2019-02-23T23:28:03.311Z,26.13
2019-02-23T23:30:32.907Z,29.07
2019-02-23T23:33:02.320Z,23.80
2019-02-23T23:35:31.769Z,26.33
2019-02-23T23:38:02.121Z,19.47
2019-02-23T23:40:34.260Z,19.30
2019-02-23T23:43:04.852Z,19.00
2019-02-23T23:45:36.979Z,17.03
2019-02-23T23:48:07.741Z,31.77
2019-02-23T23:50:38.441Z,20.30
2019-02-23T23:53:07.919Z,14.87
2019-02-23T23:55:37.494Z,20.57
2019-02-23T23:58:07.867Z,24.43
